sensor_id;sensor_type;location;lat;lon;timestamp;P1;durP1;ratioP1;P2;durP2;ratioP2
10347;SDS011;5220;43.192;23.284;2023-05-21T00:02:17;7.47;;;3.75;;
10347;SDS011;5220;43.192;23.284;2023-05-21T00:04:45;6.57;;;3.53;;
10347;SDS011;5220;43.192;23.284;2023-05-21T00:07:12;3.83;;;3.50;;
10347;SDS011;5220;43.192;23.284;2023-05-21T00:09:40;4.45;;;3.38;;
10347;SDS011;5220;43.192;23.284;2023-05-21T00:12:07;4.40;;;4.00;;
10347;SDS011;5220;43.192;23.284;2023-05-21T00:14:35;5.15;;;3.60;;
10347;SDS011;5220;43.192;23.284;2023-05-21T00:17:02;3.65;;;3.35;;
10347;SDS011;5220;43.192;23.284;2023-05-21T00:19:29;7.32;;;3.92;;
10347;SDS011;5220;43.192;23.284;2023-05-21T00:21:57;6.63;;;3.45;;
10347;SDS011;5220;43.192;23.284;2023-05-21T00:24:26;5.28;;;3.90;;
10347;SDS011;5220;43.192;23.284;2023-05-21T00:26:53;9.30;;;3.95;;
10347;SDS011;5220;43.192;23.284;2023-05-21T00:29:19;5.25;;;3.97;;
10347;SDS011;5220;43.192;23.284;2023-05-21T00:31:48;4.80;;;3.30;;
10347;SDS011;5220;43.192;23.284;2023-05-21T00:34:16;8.15;;;4.30;;
10347;SDS011;5220;43.192;23.284;2023-05-21T00:36:43;8.65;;;4.00;;
10347;SDS011;5220;43.192;23.284;2023-05-21T00:39:10;5.00;;;3.53;;
10347;SDS011;5220;43.192;23.284;2023-05-21T00:41:37;5.43;;;3.70;;
10347;SDS011;5220;43.192;23.284;2023-05-21T00:44:04;7.53;;;4.13;;
10347;SDS011;5220;43.192;23.284;2023-05-21T00:46:31;6.53;;;4.25;;
10347;SDS011;5220;43.192;23.284;2023-05-21T00:48:59;5.90;;;3.85;;
10347;SDS011;5220;43.192;23.284;2023-05-21T00:51:26;6.32;;;3.80;;
10347;SDS011;5220;43.192;23.284;2023-05-21T00:53:54;6.63;;;4.22;;
10347;SDS011;5220;43.192;23.284;2023-05-21T00:56:22;9.95;;;4.22;;
10347;SDS011;5220;43.192;23.284;2023-05-21T00:58:50;9.10;;;4.45;;
10347;SDS011;5220;43.192;23.284;2023-05-21T01:01:17;5.70;;;3.88;;
10347;SDS011;5220;43.192;23.284;2023-05-21T01:03:44;5.32;;;4.25;;
10347;SDS011;5220;43.192;23.284;2023-05-21T01:06:13;6.07;;;4.47;;
10347;SDS011;5220;43.192;23.284;2023-05-21T01:08:40;4.35;;;3.95;;
10347;SDS011;5220;43.192;23.284;2023-05-21T01:11:08;6.28;;;4.05;;
10347;SDS011;5220;43.192;23.284;2023-05-21T01:13:37;4.38;;;3.97;;
10347;SDS011;5220;43.192;23.284;2023-05-21T01:16:05;5.72;;;3.88;;
10347;SDS011;5220;43.192;23.284;2023-05-21T01:18:33;5.22;;;3.90;;
10347;SDS011;5220;43.192;23.284;2023-05-21T01:21:01;6.78;;;4.38;;
10347;SDS011;5220;43.192;23.284;2023-05-21T01:23:30;4.57;;;3.95;;
10347;SDS011;5220;43.192;23.284;2023-05-21T01:25:57;5.20;;;4.63;;
10347;SDS011;5220;43.192;23.284;2023-05-21T01:28:23;5.10;;;4.35;;
10347;SDS011;5220;43.192;23.284;2023-05-21T01:30:50;4.68;;;3.72;;
10347;SDS011;5220;43.192;23.284;2023-05-21T01:33:18;8.23;;;4.25;;
10347;SDS011;5220;43.192;23.284;2023-05-21T01:35:53;7.10;;;3.80;;
10347;SDS011;5220;43.192;23.284;2023-05-21T01:38:30;5.82;;;3.55;;
10347;SDS011;5220;43.192;23.284;2023-05-21T01:41:03;4.30;;;3.85;;
10347;SDS011;5220;43.192;23.284;2023-05-21T01:43:37;4.78;;;3.60;;
10347;SDS011;5220;43.192;23.284;2023-05-21T01:46:05;4.97;;;3.70;;
10347;SDS011;5220;43.192;23.284;2023-05-21T01:48:34;5.40;;;3.60;;
10347;SDS011;5220;43.192;23.284;2023-05-21T01:51:02;8.77;;;3.95;;
10347;SDS011;5220;43.192;23.284;2023-05-21T01:53:31;7.72;;;4.10;;
10347;SDS011;5220;43.192;23.284;2023-05-21T01:55:58;5.60;;;3.83;;
10347;SDS011;5220;43.192;23.284;2023-05-21T01:58:25;6.75;;;3.80;;
10347;SDS011;5220;43.192;23.284;2023-05-21T02:00:51;4.93;;;4.00;;
10347;SDS011;5220;43.192;23.284;2023-05-21T02:03:19;7.13;;;3.53;;
10347;SDS011;5220;43.192;23.284;2023-05-21T02:05:47;7.60;;;4.05;;
10347;SDS011;5220;43.192;23.284;2023-05-21T02:08:16;4.30;;;3.45;;
10347;SDS011;5220;43.192;23.284;2023-05-21T02:10:45;6.10;;;3.53;;
10347;SDS011;5220;43.192;23.284;2023-05-21T02:13:11;4.85;;;3.60;;
10347;SDS011;5220;43.192;23.284;2023-05-21T02:15:38;6.40;;;3.45;;
10347;SDS011;5220;43.192;23.284;2023-05-21T02:18:05;4.97;;;4.47;;
10347;SDS011;5220;43.192;23.284;2023-05-21T02:20:32;5.18;;;4.20;;
10347;SDS011;5220;43.192;23.284;2023-05-21T02:22:59;8.48;;;4.40;;
10347;SDS011;5220;43.192;23.284;2023-05-21T02:25:25;7.30;;;4.35;;
10347;SDS011;5220;43.192;23.284;2023-05-21T02:27:53;8.50;;;4.32;;
10347;SDS011;5220;43.192;23.284;2023-05-21T02:30:20;5.28;;;4.40;;
10347;SDS011;5220;43.192;23.284;2023-05-21T02:32:47;7.32;;;5.03;;
10347;SDS011;5220;43.192;23.284;2023-05-21T02:35:14;9.60;;;4.70;;
10347;SDS011;5220;43.192;23.284;2023-05-21T02:37:41;5.50;;;4.25;;
10347;SDS011;5220;43.192;23.284;2023-05-21T02:40:09;5.05;;;4.05;;
10347;SDS011;5220;43.192;23.284;2023-05-21T02:42:36;8.68;;;3.63;;
10347;SDS011;5220;43.192;23.284;2023-05-21T02:45:05;4.93;;;4.13;;
10347;SDS011;5220;43.192;23.284;2023-05-21T02:47:33;6.45;;;3.50;;
10347;SDS011;5220;43.192;23.284;2023-05-21T02:50:00;3.75;;;3.42;;
10347;SDS011;5220;43.192;23.284;2023-05-21T02:52:26;5.10;;;3.97;;
10347;SDS011;5220;43.192;23.284;2023-05-21T02:54:53;6.18;;;3.80;;
10347;SDS011;5220;43.192;23.284;2023-05-21T02:57:20;4.30;;;3.90;;
10347;SDS011;5220;43.192;23.284;2023-05-21T02:59:47;5.90;;;3.67;;
10347;SDS011;5220;43.192;23.284;2023-05-21T03:02:15;8.45;;;3.92;;
10347;SDS011;5220;43.192;23.284;2023-05-21T03:04:42;4.72;;;3.95;;
10347;SDS011;5220;43.192;23.284;2023-05-21T03:07:11;10.77;;;4.35;;
10347;SDS011;5220;43.192;23.284;2023-05-21T03:09:38;4.88;;;3.80;;
10347;SDS011;5220;43.192;23.284;2023-05-21T03:12:05;5.97;;;3.97;;
10347;SDS011;5220;43.192;23.284;2023-05-21T03:14:32;5.38;;;3.90;;
10347;SDS011;5220;43.192;23.284;2023-05-21T03:16:59;8.70;;;3.70;;
10347;SDS011;5220;43.192;23.284;2023-05-21T03:19:28;5.40;;;3.58;;
10347;SDS011;5220;43.192;23.284;2023-05-21T03:21:58;4.03;;;3.53;;
10347;SDS011;5220;43.192;23.284;2023-05-21T03:24:25;8.30;;;6.03;;
10347;SDS011;5220;43.192;23.284;2023-05-21T03:26:53;11.05;;;6.20;;
10347;SDS011;5220;43.192;23.284;2023-05-21T03:29:20;10.38;;;5.78;;
10347;SDS011;5220;43.192;23.284;2023-05-21T03:31:46;14.65;;;7.55;;
10347;SDS011;5220;43.192;23.284;2023-05-21T03:34:13;9.65;;;6.10;;
10347;SDS011;5220;43.192;23.284;2023-05-21T03:36:41;14.50;;;5.07;;
10347;SDS011;5220;43.192;23.284;2023-05-21T03:39:09;9.95;;;5.93;;
10347;SDS011;5220;43.192;23.284;2023-05-21T03:41:36;5.68;;;4.82;;
10347;SDS011;5220;43.192;23.284;2023-05-21T03:44:03;7.18;;;4.72;;
10347;SDS011;5220;43.192;23.284;2023-05-21T03:46:31;7.93;;;5.72;;
10347;SDS011;5220;43.192;23.284;2023-05-21T03:48:58;6.30;;;5.28;;
10347;SDS011;5220;43.192;23.284;2023-05-21T03:51:25;5.18;;;4.28;;
10347;SDS011;5220;43.192;23.284;2023-05-21T03:53:56;5.93;;;4.18;;
10347;SDS011;5220;43.192;23.284;2023-05-21T03:56:23;8.73;;;4.75;;
10347;SDS011;5220;43.192;23.284;2023-05-21T03:58:50;10.27;;;4.18;;
10347;SDS011;5220;43.192;23.284;2023-05-21T04:01:17;4.10;;;3.55;;
10347;SDS011;5220;43.192;23.284;2023-05-21T04:03:44;5.45;;;4.55;;
10347;SDS011;5220;43.192;23.284;2023-05-21T04:06:11;5.63;;;4.35;;
10347;SDS011;5220;43.192;23.284;2023-05-21T04:08:38;5.32;;;4.75;;
10347;SDS011;5220;43.192;23.284;2023-05-21T04:11:06;4.47;;;4.07;;
10347;SDS011;5220;43.192;23.284;2023-05-21T04:13:33;5.78;;;3.92;;
10347;SDS011;5220;43.192;23.284;2023-05-21T04:16:00;4.90;;;4.15;;
10347;SDS011;5220;43.192;23.284;2023-05-21T04:18:26;9.32;;;4.63;;
10347;SDS011;5220;43.192;23.284;2023-05-21T04:20:53;4.97;;;3.83;;
10347;SDS011;5220;43.192;23.284;2023-05-21T04:23:20;6.15;;;4.07;;
10347;SDS011;5220;43.192;23.284;2023-05-21T04:25:47;15.00;;;4.13;;
10347;SDS011;5220;43.192;23.284;2023-05-21T04:28:16;4.93;;;4.43;;
10347;SDS011;5220;43.192;23.284;2023-05-21T04:30:44;10.07;;;4.70;;
10347;SDS011;5220;43.192;23.284;2023-05-21T04:33:11;7.95;;;5.38;;
10347;SDS011;5220;43.192;23.284;2023-05-21T04:35:41;9.18;;;5.40;;
10347;SDS011;5220;43.192;23.284;2023-05-21T04:38:09;7.18;;;6.45;;
10347;SDS011;5220;43.192;23.284;2023-05-21T04:40:36;6.20;;;5.60;;
10347;SDS011;5220;43.192;23.284;2023-05-21T04:43:04;8.23;;;7.43;;
10347;SDS011;5220;43.192;23.284;2023-05-21T04:45:33;9.13;;;7.53;;
10347;SDS011;5220;43.192;23.284;2023-05-21T04:48:00;11.70;;;8.02;;
10347;SDS011;5220;43.192;23.284;2023-05-21T04:50:26;7.72;;;7.03;;
10347;SDS011;5220;43.192;23.284;2023-05-21T04:52:54;8.95;;;7.50;;
10347;SDS011;5220;43.192;23.284;2023-05-21T04:55:22;9.90;;;8.27;;
10347;SDS011;5220;43.192;23.284;2023-05-21T04:57:50;9.48;;;7.47;;
10347;SDS011;5220;43.192;23.284;2023-05-21T05:00:17;9.40;;;7.75;;
10347;SDS011;5220;43.192;23.284;2023-05-21T05:02:46;7.30;;;6.45;;
10347;SDS011;5220;43.192;23.284;2023-05-21T05:05:12;9.88;;;6.07;;
10347;SDS011;5220;43.192;23.284;2023-05-21T05:07:39;11.40;;;5.97;;
10347;SDS011;5220;43.192;23.284;2023-05-21T05:10:06;5.88;;;5.28;;
10347;SDS011;5220;43.192;23.284;2023-05-21T05:12:33;7.30;;;5.63;;
10347;SDS011;5220;43.192;23.284;2023-05-21T05:15:00;12.32;;;7.65;;
10347;SDS011;5220;43.192;23.284;2023-05-21T05:17:26;5.72;;;5.05;;
10347;SDS011;5220;43.192;23.284;2023-05-21T05:19:55;6.35;;;4.90;;
10347;SDS011;5220;43.192;23.284;2023-05-21T05:22:21;5.32;;;4.63;;
10347;SDS011;5220;43.192;23.284;2023-05-21T05:24:48;6.03;;;3.95;;
10347;SDS011;5220;43.192;23.284;2023-05-21T05:27:15;4.18;;;3.78;;
10347;SDS011;5220;43.192;23.284;2023-05-21T05:29:42;8.32;;;3.97;;
10347;SDS011;5220;43.192;23.284;2023-05-21T05:32:09;4.32;;;3.50;;
10347;SDS011;5220;43.192;23.284;2023-05-21T05:34:36;5.32;;;3.75;;
10347;SDS011;5220;43.192;23.284;2023-05-21T05:37:05;6.60;;;4.00;;
10347;SDS011;5220;43.192;23.284;2023-05-21T05:39:31;5.35;;;3.85;;
10347;SDS011;5220;43.192;23.284;2023-05-21T05:41:58;5.60;;;3.95;;
10347;SDS011;5220;43.192;23.284;2023-05-21T05:44:25;4.03;;;3.58;;
10347;SDS011;5220;43.192;23.284;2023-05-21T05:46:52;4.00;;;3.70;;
10347;SDS011;5220;43.192;23.284;2023-05-21T05:49:18;4.63;;;3.78;;
10347;SDS011;5220;43.192;23.284;2023-05-21T05:51:45;5.47;;;3.90;;
10347;SDS011;5220;43.192;23.284;2023-05-21T05:54:13;5.05;;;3.97;;
10347;SDS011;5220;43.192;23.284;2023-05-21T05:56:40;5.60;;;3.20;;
10347;SDS011;5220;43.192;23.284;2023-05-21T05:59:07;5.22;;;3.85;;
10347;SDS011;5220;43.192;23.284;2023-05-21T06:01:33;3.72;;;3.42;;
10347;SDS011;5220;43.192;23.284;2023-05-21T06:04:00;6.47;;;3.47;;
10347;SDS011;5220;43.192;23.284;2023-05-21T06:06:27;5.22;;;4.25;;
10347;SDS011;5220;43.192;23.284;2023-05-21T06:08:53;6.22;;;4.00;;
10347;SDS011;5220;43.192;23.284;2023-05-21T06:11:21;7.07;;;3.83;;
10347;SDS011;5220;43.192;23.284;2023-05-21T06:13:48;5.10;;;3.63;;
10347;SDS011;5220;43.192;23.284;2023-05-21T06:16:14;4.30;;;3.90;;
10347;SDS011;5220;43.192;23.284;2023-05-21T06:18:41;5.20;;;3.42;;
10347;SDS011;5220;43.192;23.284;2023-05-21T06:21:08;4.63;;;3.72;;
10347;SDS011;5220;43.192;23.284;2023-05-21T06:23:35;4.05;;;3.65;;
10347;SDS011;5220;43.192;23.284;2023-05-21T06:26:01;7.53;;;5.35;;
10347;SDS011;5220;43.192;23.284;2023-05-21T06:28:30;4.38;;;3.50;;
10347;SDS011;5220;43.192;23.284;2023-05-21T06:30:56;4.18;;;3.83;;
10347;SDS011;5220;43.192;23.284;2023-05-21T06:33:23;9.23;;;3.85;;
10347;SDS011;5220;43.192;23.284;2023-05-21T06:35:51;3.75;;;3.20;;
10347;SDS011;5220;43.192;23.284;2023-05-21T06:38:18;5.57;;;4.07;;
10347;SDS011;5220;43.192;23.284;2023-05-21T06:40:44;6.95;;;4.03;;
10347;SDS011;5220;43.192;23.284;2023-05-21T06:43:12;6.85;;;3.83;;
10347;SDS011;5220;43.192;23.284;2023-05-21T06:45:40;4.82;;;4.28;;
10347;SDS011;5220;43.192;23.284;2023-05-21T06:48:07;4.80;;;4.30;;
10347;SDS011;5220;43.192;23.284;2023-05-21T06:50:33;5.85;;;4.22;;
10347;SDS011;5220;43.192;23.284;2023-05-21T06:53:00;5.72;;;4.55;;
10347;SDS011;5220;43.192;23.284;2023-05-21T06:55:27;4.75;;;4.05;;
10347;SDS011;5220;43.192;23.284;2023-05-21T06:57:53;4.07;;;3.50;;
10347;SDS011;5220;43.192;23.284;2023-05-21T07:00:20;6.13;;;3.60;;
10347;SDS011;5220;43.192;23.284;2023-05-21T07:02:48;5.57;;;3.97;;
10347;SDS011;5220;43.192;23.284;2023-05-21T07:05:15;4.88;;;4.28;;
10347;SDS011;5220;43.192;23.284;2023-05-21T07:07:41;5.63;;;3.70;;
10347;SDS011;5220;43.192;23.284;2023-05-21T07:10:08;4.88;;;3.97;;
10347;SDS011;5220;43.192;23.284;2023-05-21T07:12:35;4.55;;;3.65;;
10347;SDS011;5220;43.192;23.284;2023-05-21T07:15:02;7.93;;;3.75;;
10347;SDS011;5220;43.192;23.284;2023-05-21T07:17:29;5.97;;;3.90;;
10347;SDS011;5220;43.192;23.284;2023-05-21T07:19:57;5.30;;;3.97;;
10347;SDS011;5220;43.192;23.284;2023-05-21T07:22:24;5.85;;;3.88;;
10347;SDS011;5220;43.192;23.284;2023-05-21T07:24:50;5.57;;;4.20;;
10347;SDS011;5220;43.192;23.284;2023-05-21T07:27:17;4.82;;;3.97;;
10347;SDS011;5220;43.192;23.284;2023-05-21T07:29:44;6.15;;;4.15;;
10347;SDS011;5220;43.192;23.284;2023-05-21T07:32:10;4.80;;;4.32;;
10347;SDS011;5220;43.192;23.284;2023-05-21T07:34:37;4.38;;;3.95;;
10347;SDS011;5220;43.192;23.284;2023-05-21T07:37:05;5.18;;;4.25;;
10347;SDS011;5220;43.192;23.284;2023-05-21T07:39:32;5.25;;;4.30;;
10347;SDS011;5220;43.192;23.284;2023-05-21T07:41:58;7.18;;;4.35;;
10347;SDS011;5220;43.192;23.284;2023-05-21T07:44:25;4.95;;;4.30;;
10347;SDS011;5220;43.192;23.284;2023-05-21T07:46:52;6.45;;;4.47;;
10347;SDS011;5220;43.192;23.284;2023-05-21T07:49:18;8.68;;;4.20;;
10347;SDS011;5220;43.192;23.284;2023-05-21T07:51:45;7.20;;;4.15;;
10347;SDS011;5220;43.192;23.284;2023-05-21T07:54:13;5.00;;;4.25;;
10347;SDS011;5220;43.192;23.284;2023-05-21T07:56:40;5.18;;;4.43;;
10347;SDS011;5220;43.192;23.284;2023-05-21T07:59:06;4.95;;;4.50;;
10347;SDS011;5220;43.192;23.284;2023-05-21T08:01:33;7.82;;;5.07;;
10347;SDS011;5220;43.192;23.284;2023-05-21T08:04:01;5.47;;;4.57;;
10347;SDS011;5220;43.192;23.284;2023-05-21T08:06:29;8.02;;;4.53;;
10347;SDS011;5220;43.192;23.284;2023-05-21T08:08:58;6.63;;;4.10;;
10347;SDS011;5220;43.192;23.284;2023-05-21T08:11:27;4.80;;;4.40;;
10347;SDS011;5220;43.192;23.284;2023-05-21T08:13:53;5.50;;;5.00;;
10347;SDS011;5220;43.192;23.284;2023-05-21T08:16:20;7.30;;;4.38;;
10347;SDS011;5220;43.192;23.284;2023-05-21T08:18:48;6.78;;;4.28;;
10347;SDS011;5220;43.192;23.284;2023-05-21T08:21:15;7.68;;;4.40;;
10347;SDS011;5220;43.192;23.284;2023-05-21T08:23:42;7.18;;;4.13;;
10347;SDS011;5220;43.192;23.284;2023-05-21T08:26:09;4.88;;;4.22;;
10347;SDS011;5220;43.192;23.284;2023-05-21T08:28:37;6.82;;;4.43;;
10347;SDS011;5220;43.192;23.284;2023-05-21T08:31:04;5.38;;;4.50;;
10347;SDS011;5220;43.192;23.284;2023-05-21T08:33:33;5.70;;;4.75;;
10347;SDS011;5220;43.192;23.284;2023-05-21T08:36:01;7.63;;;4.68;;
10347;SDS011;5220;43.192;23.284;2023-05-21T08:38:28;5.60;;;4.45;;
10347;SDS011;5220;43.192;23.284;2023-05-21T08:40:55;6.75;;;4.85;;
10347;SDS011;5220;43.192;23.284;2023-05-21T08:43:23;8.45;;;4.28;;
10347;SDS011;5220;43.192;23.284;2023-05-21T08:45:54;5.53;;;4.82;;
10347;SDS011;5220;43.192;23.284;2023-05-21T08:48:23;6.32;;;4.45;;
10347;SDS011;5220;43.192;23.284;2023-05-21T08:50:50;4.53;;;4.13;;
10347;SDS011;5220;43.192;23.284;2023-05-21T08:53:17;4.78;;;4.38;;
10347;SDS011;5220;43.192;23.284;2023-05-21T08:55:44;5.15;;;4.07;;
10347;SDS011;5220;43.192;23.284;2023-05-21T08:58:12;4.45;;;4.05;;
10347;SDS011;5220;43.192;23.284;2023-05-21T09:00:39;5.95;;;4.18;;
10347;SDS011;5220;43.192;23.284;2023-05-21T09:03:07;5.75;;;4.20;;
10347;SDS011;5220;43.192;23.284;2023-05-21T09:05:37;8.95;;;5.47;;
10347;SDS011;5220;43.192;23.284;2023-05-21T09:08:06;9.57;;;6.78;;
10347;SDS011;5220;43.192;23.284;2023-05-21T09:10:40;8.20;;;4.50;;
10347;SDS011;5220;43.192;23.284;2023-05-21T09:13:13;5.00;;;4.28;;
10347;SDS011;5220;43.192;23.284;2023-05-21T09:15:42;5.15;;;4.10;;
10347;SDS011;5220;43.192;23.284;2023-05-21T09:18:10;6.45;;;5.15;;
10347;SDS011;5220;43.192;23.284;2023-05-21T09:20:37;8.23;;;4.65;;
10347;SDS011;5220;43.192;23.284;2023-05-21T09:23:04;9.95;;;4.82;;
10347;SDS011;5220;43.192;23.284;2023-05-21T09:25:36;8.77;;;5.65;;
10347;SDS011;5220;43.192;23.284;2023-05-21T09:28:09;7.55;;;4.97;;
10347;SDS011;5220;43.192;23.284;2023-05-21T09:30:42;4.88;;;4.38;;
10347;SDS011;5220;43.192;23.284;2023-05-21T09:33:10;8.70;;;4.70;;
10347;SDS011;5220;43.192;23.284;2023-05-21T09:35:43;7.75;;;4.68;;
10347;SDS011;5220;43.192;23.284;2023-05-21T09:38:10;5.72;;;5.05;;
10347;SDS011;5220;43.192;23.284;2023-05-21T09:40:38;8.38;;;4.95;;
10347;SDS011;5220;43.192;23.284;2023-05-21T09:43:12;7.95;;;4.38;;
10347;SDS011;5220;43.192;23.284;2023-05-21T09:45:39;7.22;;;4.80;;
10347;SDS011;5220;43.192;23.284;2023-05-21T09:48:17;10.85;;;5.30;;
10347;SDS011;5220;43.192;23.284;2023-05-21T09:51:06;6.55;;;5.25;;
10347;SDS011;5220;43.192;23.284;2023-05-21T09:53:41;7.53;;;4.88;;
10347;SDS011;5220;43.192;23.284;2023-05-21T09:56:09;7.82;;;4.57;;
10347;SDS011;5220;43.192;23.284;2023-05-21T09:58:36;6.40;;;4.43;;
10347;SDS011;5220;43.192;23.284;2023-05-21T10:01:03;6.50;;;4.53;;
10347;SDS011;5220;43.192;23.284;2023-05-21T10:03:32;9.20;;;5.10;;
10347;SDS011;5220;43.192;23.284;2023-05-21T10:06:05;6.60;;;4.53;;
10347;SDS011;5220;43.192;23.284;2023-05-21T10:08:33;5.75;;;4.63;;
10347;SDS011;5220;43.192;23.284;2023-05-21T10:11:02;10.70;;;4.90;;
10347;SDS011;5220;43.192;23.284;2023-05-21T10:13:30;6.30;;;4.57;;
10347;SDS011;5220;43.192;23.284;2023-05-21T10:16:03;7.03;;;4.55;;
10347;SDS011;5220;43.192;23.284;2023-05-21T10:18:31;6.28;;;4.10;;
10347;SDS011;5220;43.192;23.284;2023-05-21T10:21:00;9.52;;;5.13;;
10347;SDS011;5220;43.192;23.284;2023-05-21T10:23:27;6.75;;;4.20;;
10347;SDS011;5220;43.192;23.284;2023-05-21T10:25:55;7.95;;;4.32;;
10347;SDS011;5220;43.192;23.284;2023-05-21T10:28:24;10.40;;;4.80;;
10347;SDS011;5220;43.192;23.284;2023-05-21T10:30:51;7.75;;;5.10;;
10347;SDS011;5220;43.192;23.284;2023-05-21T10:33:18;12.27;;;4.78;;
10347;SDS011;5220;43.192;23.284;2023-05-21T10:35:49;7.10;;;4.45;;
10347;SDS011;5220;43.192;23.284;2023-05-21T10:38:18;5.90;;;4.43;;
10347;SDS011;5220;43.192;23.284;2023-05-21T10:40:45;6.35;;;5.28;;
10347;SDS011;5220;43.192;23.284;2023-05-21T10:46:35;7.22;;;4.57;;
10347;SDS011;5220;43.192;23.284;2023-05-21T10:52:12;7.63;;;4.40;;
10347;SDS011;5220;43.192;23.284;2023-05-21T10:55:04;8.90;;;5.40;;
10347;SDS011;5220;43.192;23.284;2023-05-21T10:57:57;6.38;;;4.60;;
10347;SDS011;5220;43.192;23.284;2023-05-21T11:00:40;6.13;;;4.57;;
10347;SDS011;5220;43.192;23.284;2023-05-21T11:03:08;5.70;;;4.63;;
10347;SDS011;5220;43.192;23.284;2023-05-21T11:05:37;7.57;;;4.75;;
10347;SDS011;5220;43.192;23.284;2023-05-21T11:08:06;8.35;;;4.68;;
10347;SDS011;5220;43.192;23.284;2023-05-21T11:10:50;6.47;;;4.65;;
10347;SDS011;5220;43.192;23.284;2023-05-21T11:13:17;8.85;;;4.65;;
10347;SDS011;5220;43.192;23.284;2023-05-21T11:21:29;7.40;;;4.75;;
10347;SDS011;5220;43.192;23.284;2023-05-21T11:24:04;6.75;;;4.10;;
10347;SDS011;5220;43.192;23.284;2023-05-21T11:29:30;6.43;;;5.05;;
10347;SDS011;5220;43.192;23.284;2023-05-21T11:32:05;10.13;;;5.18;;
10347;SDS011;5220;43.192;23.284;2023-05-21T11:34:35;7.68;;;4.63;;
10347;SDS011;5220;43.192;23.284;2023-05-21T11:39:53;7.30;;;5.20;;
10347;SDS011;5220;43.192;23.284;2023-05-21T11:42:27;10.60;;;5.55;;
10347;SDS011;5220;43.192;23.284;2023-05-21T11:44:55;7.70;;;4.80;;
10347;SDS011;5220;43.192;23.284;2023-05-21T11:47:23;8.43;;;4.63;;
10347;SDS011;5220;43.192;23.284;2023-05-21T11:49:51;6.85;;;4.30;;
10347;SDS011;5220;43.192;23.284;2023-05-21T11:52:18;8.95;;;5.05;;
10347;SDS011;5220;43.192;23.284;2023-05-21T11:54:45;4.50;;;4.07;;
10347;SDS011;5220;43.192;23.284;2023-05-21T11:57:16;6.68;;;4.05;;
10347;SDS011;5220;43.192;23.284;2023-05-21T11:59:43;7.90;;;4.93;;
10347;SDS011;5220;43.192;23.284;2023-05-21T12:02:13;8.55;;;4.43;;
10347;SDS011;5220;43.192;23.284;2023-05-21T12:04:41;8.68;;;4.63;;
10347;SDS011;5220;43.192;23.284;2023-05-21T12:07:09;12.18;;;4.80;;
10347;SDS011;5220;43.192;23.284;2023-05-21T12:09:37;11.02;;;5.35;;
10347;SDS011;5220;43.192;23.284;2023-05-21T12:12:06;13.45;;;4.43;;
10347;SDS011;5220;43.192;23.284;2023-05-21T12:14:35;5.95;;;4.60;;
10347;SDS011;5220;43.192;23.284;2023-05-21T12:17:02;5.70;;;4.07;;
10347;SDS011;5220;43.192;23.284;2023-05-21T12:19:31;8.90;;;4.55;;
10347;SDS011;5220;43.192;23.284;2023-05-21T12:22:00;10.48;;;5.10;;
10347;SDS011;5220;43.192;23.284;2023-05-21T12:24:28;7.90;;;4.60;;
10347;SDS011;5220;43.192;23.284;2023-05-21T12:26:55;8.88;;;5.65;;
10347;SDS011;5220;43.192;23.284;2023-05-21T12:29:24;7.95;;;4.13;;
10347;SDS011;5220;43.192;23.284;2023-05-21T12:31:52;5.22;;;4.53;;
10347;SDS011;5220;43.192;23.284;2023-05-21T12:37:14;6.28;;;4.40;;
10347;SDS011;5220;43.192;23.284;2023-05-21T12:39:42;7.53;;;4.22;;
10347;SDS011;5220;43.192;23.284;2023-05-21T12:42:10;5.43;;;4.68;;
10347;SDS011;5220;43.192;23.284;2023-05-21T12:44:38;9.18;;;5.03;;
10347;SDS011;5220;43.192;23.284;2023-05-21T12:47:10;6.53;;;4.57;;
10347;SDS011;5220;43.192;23.284;2023-05-21T12:49:38;9.77;;;4.75;;
10347;SDS011;5220;43.192;23.284;2023-05-21T12:52:09;5.75;;;4.25;;
10347;SDS011;5220;43.192;23.284;2023-05-21T12:54:36;12.23;;;4.78;;
10347;SDS011;5220;43.192;23.284;2023-05-21T12:57:10;6.88;;;4.93;;
10347;SDS011;5220;43.192;23.284;2023-05-21T12:59:46;8.95;;;4.80;;
10347;SDS011;5220;43.192;23.284;2023-05-21T13:02:22;8.10;;;4.53;;
10347;SDS011;5220;43.192;23.284;2023-05-21T13:04:53;6.22;;;4.10;;
10347;SDS011;5220;43.192;23.284;2023-05-21T13:07:21;5.28;;;3.90;;
10347;SDS011;5220;43.192;23.284;2023-05-21T13:09:48;7.40;;;4.45;;
10347;SDS011;5220;43.192;23.284;2023-05-21T13:12:17;8.45;;;4.80;;
10347;SDS011;5220;43.192;23.284;2023-05-21T13:14:44;7.93;;;4.53;;
10347;SDS011;5220;43.192;23.284;2023-05-21T13:17:11;6.03;;;4.15;;
10347;SDS011;5220;43.192;23.284;2023-05-21T13:19:39;9.23;;;4.05;;
10347;SDS011;5220;43.192;23.284;2023-05-21T13:22:05;6.18;;;4.15;;
10347;SDS011;5220;43.192;23.284;2023-05-21T13:24:34;7.88;;;4.20;;
10347;SDS011;5220;43.192;23.284;2023-05-21T13:27:01;7.53;;;4.20;;
10347;SDS011;5220;43.192;23.284;2023-05-21T13:29:28;4.75;;;4.00;;
10347;SDS011;5220;43.192;23.284;2023-05-21T13:31:55;7.90;;;3.85;;
10347;SDS011;5220;43.192;23.284;2023-05-21T13:34:22;6.97;;;4.10;;
10347;SDS011;5220;43.192;23.284;2023-05-21T13:36:51;55.45;;;7.10;;
10347;SDS011;5220;43.192;23.284;2023-05-21T13:39:17;7.53;;;4.05;;
10347;SDS011;5220;43.192;23.284;2023-05-21T13:41:50;10.02;;;3.78;;
10347;SDS011;5220;43.192;23.284;2023-05-21T13:44:17;7.88;;;4.53;;
10347;SDS011;5220;43.192;23.284;2023-05-21T13:46:44;5.70;;;4.50;;
10347;SDS011;5220;43.192;23.284;2023-05-21T13:49:11;5.25;;;4.30;;
10347;SDS011;5220;43.192;23.284;2023-05-21T13:51:37;6.78;;;4.30;;
10347;SDS011;5220;43.192;23.284;2023-05-21T13:54:05;7.97;;;4.15;;
10347;SDS011;5220;43.192;23.284;2023-05-21T13:56:32;4.82;;;4.07;;
10347;SDS011;5220;43.192;23.284;2023-05-21T13:58:59;7.47;;;4.47;;
10347;SDS011;5220;43.192;23.284;2023-05-21T14:01:26;7.20;;;3.80;;
10347;SDS011;5220;43.192;23.284;2023-05-21T14:03:53;6.43;;;4.03;;
10347;SDS011;5220;43.192;23.284;2023-05-21T14:06:19;4.97;;;3.83;;
10347;SDS011;5220;43.192;23.284;2023-05-21T14:08:46;4.93;;;3.70;;
10347;SDS011;5220;43.192;23.284;2023-05-21T14:11:14;8.65;;;3.90;;
10347;SDS011;5220;43.192;23.284;2023-05-21T14:13:41;7.60;;;4.65;;
10347;SDS011;5220;43.192;23.284;2023-05-21T14:16:08;7.30;;;4.65;;
10347;SDS011;5220;43.192;23.284;2023-05-21T14:18:35;9.88;;;4.93;;
10347;SDS011;5220;43.192;23.284;2023-05-21T14:21:01;7.13;;;5.32;;
10347;SDS011;5220;43.192;23.284;2023-05-21T14:23:28;6.15;;;3.75;;
10347;SDS011;5220;43.192;23.284;2023-05-21T14:25:55;7.80;;;4.18;;
10347;SDS011;5220;43.192;23.284;2023-05-21T14:28:23;6.90;;;3.92;;
10347;SDS011;5220;43.192;23.284;2023-05-21T14:30:50;7.65;;;3.30;;
10347;SDS011;5220;43.192;23.284;2023-05-21T14:33:16;8.43;;;4.18;;
10347;SDS011;5220;43.192;23.284;2023-05-21T14:35:43;5.85;;;4.15;;
10347;SDS011;5220;43.192;23.284;2023-05-21T14:38:11;7.20;;;4.80;;
10347;SDS011;5220;43.192;23.284;2023-05-21T14:40:38;5.68;;;3.88;;
10347;SDS011;5220;43.192;23.284;2023-05-21T14:43:05;5.40;;;3.63;;
10347;SDS011;5220;43.192;23.284;2023-05-21T14:45:33;7.30;;;4.22;;
10347;SDS011;5220;43.192;23.284;2023-05-21T14:48:00;6.50;;;3.97;;
10347;SDS011;5220;43.192;23.284;2023-05-21T14:50:32;4.60;;;3.33;;
10347;SDS011;5220;43.192;23.284;2023-05-21T14:53:01;4.55;;;3.42;;
10347;SDS011;5220;43.192;23.284;2023-05-21T14:55:29;4.82;;;3.45;;
10347;SDS011;5220;43.192;23.284;2023-05-21T14:57:57;6.10;;;3.45;;
10347;SDS011;5220;43.192;23.284;2023-05-21T15:00:23;4.75;;;3.90;;
10347;SDS011;5220;43.192;23.284;2023-05-21T15:02:52;5.47;;;3.00;;
10347;SDS011;5220;43.192;23.284;2023-05-21T15:05:18;5.38;;;3.65;;
10347;SDS011;5220;43.192;23.284;2023-05-21T15:07:45;5.38;;;3.60;;
10347;SDS011;5220;43.192;23.284;2023-05-21T15:10:12;4.90;;;3.25;;
10347;SDS011;5220;43.192;23.284;2023-05-21T15:12:39;3.72;;;3.25;;
10347;SDS011;5220;43.192;23.284;2023-05-21T15:15:12;6.82;;;3.88;;